• Join FlightAware (Why Join?)
  • Login
  • US Flag 
07:49AM EDT


 

Airport Tracker/Info


-or-


 

Live Flight TrackerFlight Track Log ✈ EJA941 ✈ 26-Apr-2013 ✈ KHPN - KTEB

Flight Track Log - Related Links

Times and Time Zones

All times are in EDT time to prevent confusion due to time zone crossing. See the EJA941 flight status page for this flight to view local times or setup timezone preferences in your user account.

Time Position Orientation Groundspeed Altitude Reporting Facility
EDT Latitude Longitude Course Direction KTS MPH feet Rate Location/Type
06:36PM 41.1000 -73.7833 266° West 204 235 3,500  Level New York TRACON
06:37PM 41.1167 -73.8667 285° West 249 287 4,000 240 Climbing New York TRACON
06:38PM 41.1167 -73.9667 270° West 252 290 4,000  Level New York TRACON
06:39PM 41.1333 -74.0500 285° West 248 285 4,000  Level New York TRACON
06:40PM 41.1833 -74.0667 346° North 261 300 4,000  Level New York TRACON
06:41PM 41.2538 -73.8117 266° West  Level FlightAware Approximate
06:41PM 41.2167 -73.9833 62° Northeast 229 264 4,000  Level New York TRACON
06:42PM 41.2333 -73.9167 72° East 232 267 4,000  Level New York TRACON
06:43PM 41.1833 -73.8667 143° Southeast 225 259 4,000  Level New York TRACON
06:44PM 41.1167 -73.8667 180° South 237 273 4,000  Level New York TRACON
06:45PM 41.1167 -73.9500 270° West 219 252 4,000  Level New York TRACON
06:46PM 41.1500 -74.0333 298° West 256 295 4,000  Level New York TRACON
06:47PM 41.1667 -74.1167 285° West 241 277 4,000  Level New York TRACON
06:48PM 41.1500 -74.1667 246° West 175 201 4,000  Level New York TRACON
06:49PM 41.1333 -74.2333 252° West 174 200 4,000  Level New York TRACON
06:50PM 41.1167 -74.3000 252° West 183 211 4,000  Level New York TRACON
06:51PM 41.0833 -74.2667 143° Southeast 211 243 4,000 -540 Level New York TRACON
06:52PM 41.1000 -74.2000 72° East 182 209 3,000 -540 Descending New York TRACON
06:53PM 41.1000 -74.1333 90° East 183 211 3,000 -480 Level New York TRACON
06:54PM 41.0833 -74.0833 114° Southeast 179 206 2,100 -540 Descending New York TRACON
06:55PM 41.0500 -74.0333 131° Southeast 191 220 2,000 -60 Descending New York TRACON
06:56PM 41.0000 -74.0500 194° South 183 211 2,000  Level New York TRACON
06:57PM 40.9500 -74.0500 180° South 174 200 2,000 -480 Level New York TRACON
06:58PM 40.9000 -74.0500 180° South 144 166 1,100 -840 Descending New York TRACON
06:59PM 40.8667 -74.0667 201° Southwest 131 151 300 -840 Descending New York TRACON
07:01PM 40.8500 -74.0500 114° Southeast  Level FlightAware Approximate
07:08PM 40.8501 -74.0608 114° Southeast  Level Estimated
07:09PM 40.8501 -74.0608 114° Southeast  Level Estimated
07:10PM 40.8501 -74.0608 114° Southeast  Level Estimated
07:11PM 40.8501 -74.0608 114° Southeast  Level Estimated
07:12PM 40.8501 -74.0608 114° Southeast  Level Estimated
07:13PM 40.8501 -74.0608 114° Southeast  Level Estimated